createdAt,value
2018-07-15T00:04:12.257Z,79
2018-07-15T00:09:14.655Z,79.5
2018-07-15T00:14:16.902Z,80.300003
2018-07-15T00:19:19.222Z,81.300003
2018-07-15T00:24:21.590Z,81.800003
2018-07-15T00:29:24.029Z,82.099998
2018-07-15T00:34:26.063Z,82
2018-07-15T00:39:28.474Z,82.199997
2018-07-15T00:44:30.713Z,82.5
2018-07-15T00:49:32.963Z,83.199997
2018-07-15T00:54:35.209Z,84.199997
2018-07-15T00:59:37.652Z,84.5
2018-07-15T01:04:39.844Z,85
2018-07-15T01:09:42.090Z,85.400002
2018-07-15T01:14:44.436Z,85.800003
2018-07-15T01:19:46.823Z,86.900002
2018-07-15T01:24:49.042Z,88.099998
2018-07-15T01:29:51.284Z,87.800003
2018-07-15T01:34:53.723Z,87.599998
2018-07-15T01:39:55.979Z,88
2018-07-15T01:44:58.164Z,88.199997
2018-07-15T01:50:00.366Z,88.599998
2018-07-15T01:55:02.845Z,89.099998
2018-07-15T02:00:05.124Z,89.699997
2018-07-15T02:05:07.263Z,89.599998
2018-07-15T02:10:09.574Z,89.900002
2018-07-15T02:15:11.845Z,89.599998
2018-07-15T02:20:14.285Z,90.900002
2018-07-15T02:25:16.495Z,90.699997
2018-07-15T02:30:18.788Z,91.199997
2018-07-15T02:35:21.204Z,91.199997
2018-07-15T02:40:23.478Z,91.800003
2018-07-15T02:45:26.082Z,91.900002
2018-07-15T02:50:28.058Z,92.199997
2018-07-15T02:55:30.362Z,90.800003
2018-07-15T03:00:32.660Z,90.699997
2018-07-15T03:05:34.926Z,93.5
2018-07-15T03:10:37.229Z,93.300003
2018-07-15T03:15:39.455Z,94.800003
2018-07-15T03:20:41.731Z,94.5
2018-07-15T03:25:44.167Z,96.400002
2018-07-15T03:30:46.416Z,95.5
2018-07-15T03:35:48.596Z,94.199997
2018-07-15T03:40:50.921Z,94.699997
2018-07-15T03:45:53.281Z,95.699997
2018-07-15T03:50:55.564Z,97.099998
2018-07-15T03:55:57.909Z,95.099998
2018-07-15T04:01:00.189Z,94.400002
2018-07-15T04:06:02.457Z,96.599998
2018-07-15T04:11:04.667Z,97.800003
2018-07-15T04:16:06.980Z,95.599998
2018-07-15T04:21:09.337Z,95.800003
2018-07-15T04:26:11.597Z,97.300003
2018-07-15T04:31:13.864Z,97.300003
2018-07-15T04:36:16.085Z,97.199997
2018-07-15T04:41:18.434Z,96.599998
2018-07-15T04:46:20.726Z,96.199997
2018-07-15T04:51:23.010Z,99.099998
2018-07-15T04:56:25.227Z,99.599998
2018-07-15T05:01:27.716Z,99
2018-07-15T05:06:29.994Z,97.800003
2018-07-15T05:11:32.223Z,96.800003
2018-07-15T05:16:34.573Z,94.699997
2018-07-15T05:21:36.761Z,91.400002
2018-07-15T05:26:39.097Z,89.599998
2018-07-15T05:31:41.400Z,87.699997
2018-07-15T05:36:43.750Z,86.199997
2018-07-15T05:41:46.034Z,84.599998
2018-07-15T05:46:48.176Z,81.900002
2018-07-15T05:51:50.583Z,81
2018-07-15T05:56:52.975Z,78.5
2018-07-15T06:01:55.247Z,77.099998
2018-07-15T06:06:57.463Z,75.699997
2018-07-15T06:11:59.695Z,74
2018-07-15T06:17:02.131Z,71.900002
2018-07-15T06:22:04.428Z,70.599998
2018-07-15T06:27:06.635Z,71.099998
2018-07-15T06:32:08.909Z,67.800003
2018-07-15T06:37:11.323Z,66.900002
2018-07-15T06:42:13.534Z,66
2018-07-15T06:47:15.849Z,63.599998
2018-07-15T06:52:18.148Z,63
2018-07-15T06:57:20.511Z,59.400002
2018-07-15T07:02:22.687Z,61.400002
2018-07-15T07:07:25.161Z,58.5
2018-07-15T07:12:27.284Z,57.900002
2018-07-15T07:17:29.695Z,55.900002
2018-07-15T07:22:31.822Z,52.700001
2018-07-15T07:27:34.127Z,52.799999
2018-07-15T07:32:36.562Z,50.799999
2018-07-15T07:37:38.849Z,49.700001
2018-07-15T07:42:40.998Z,48.700001
2018-07-15T07:47:43.414Z,48.5
2018-07-15T07:52:45.772Z,46.099998
2018-07-15T07:57:47.882Z,43.900002
2018-07-15T08:02:50.154Z,44.299999
2018-07-15T08:07:52.658Z,46.099998
2018-07-15T08:12:54.980Z,44.299999
2018-07-15T08:17:56.996Z,42.700001
2018-07-15T08:22:59.396Z,45.099998
2018-07-15T08:28:01.801Z,41.299999
2018-07-15T08:33:03.985Z,41.799999
2018-07-15T08:38:06.294Z,41.900002
2018-07-15T08:43:08.673Z,39.099998
2018-07-15T08:48:10.829Z,38
2018-07-15T08:53:13.116Z,37.200001
2018-07-15T08:58:15.592Z,36.700001
2018-07-15T09:03:17.794Z,36.700001
2018-07-15T09:08:19.975Z,36.200001
2018-07-15T09:13:22.313Z,33.700001
2018-07-15T09:18:24.637Z,33.5
2018-07-15T09:23:26.989Z,33.900002
2018-07-15T09:28:29.213Z,32.700001
2018-07-15T09:33:31.648Z,29
2018-07-15T09:38:33.993Z,30.299999
2018-07-15T09:43:36.078Z,30.299999
2018-07-15T09:48:38.396Z,30.700001
2018-07-15T09:53:40.724Z,31.200001
2018-07-15T09:58:42.995Z,31.6
2018-07-15T10:03:45.283Z,30.799999
2018-07-15T10:08:47.525Z,31.1
2018-07-15T10:13:49.883Z,28.5
2018-07-15T10:18:52.236Z,28.9
2018-07-15T10:23:54.395Z,28.799999
2018-07-15T10:28:56.788Z,28.700001
2018-07-15T10:33:59.029Z,28.4
2018-07-15T10:39:01.456Z,25.5
2018-07-15T10:44:03.592Z,26.1
2018-07-15T10:49:06.053Z,27.200001
2018-07-15T10:54:08.262Z,26.700001
2018-07-15T10:59:10.515Z,25.5
2018-07-15T11:04:12.731Z,27.4
2018-07-15T11:09:15.297Z,22.799999
2018-07-15T11:14:17.383Z,24.4
2018-07-15T11:19:19.765Z,21.9
2018-07-15T11:24:21.944Z,24.1
2018-07-15T11:29:24.404Z,23.299999
2018-07-15T11:34:26.512Z,25.4
2018-07-15T11:39:28.804Z,23.1
2018-07-15T11:44:31.140Z,22.6
2018-07-15T11:49:33.531Z,25.799999
2018-07-15T12:00:01.002Z,24.700001
2018-07-15T12:05:03.258Z,23
2018-07-15T12:10:05.732Z,22.700001
2018-07-15T12:15:07.945Z,21.1
2018-07-15T12:25:58.184Z,23.4
2018-07-15T12:31:00.400Z,20.9
2018-07-15T12:36:02.758Z,22.4
2018-07-15T12:41:05.101Z,20.6
2018-07-15T12:46:07.380Z,22.799999
2018-07-15T12:51:09.627Z,22.1
2018-07-15T12:56:11.857Z,25.200001
2018-07-15T13:01:14.179Z,25.1
2018-07-15T13:06:16.392Z,21
2018-07-15T13:11:18.795Z,22.6
2018-07-15T13:16:21.058Z,20.6
2018-07-15T13:21:23.481Z,21.200001
2018-07-15T13:26:25.674Z,22.299999
2018-07-15T13:31:27.941Z,20.200001
2018-07-15T13:36:30.151Z,20.5
2018-07-15T13:41:32.554Z,19.200001
2018-07-15T13:46:34.884Z,18.1
2018-07-15T13:51:37.286Z,19.1
2018-07-15T13:56:39.502Z,21
2018-07-15T14:01:41.698Z,20.700001
2018-07-15T14:06:44.009Z,18.299999
2018-07-15T14:11:46.430Z,19.200001
2018-07-15T14:16:48.635Z,20.1
2018-07-15T14:21:50.860Z,18.4
2018-07-15T14:26:53.335Z,18.799999
2018-07-15T14:31:55.585Z,16.5
2018-07-15T14:36:57.780Z,17.799999
2018-07-15T14:42:00.210Z,17.6
2018-07-15T14:47:02.341Z,18.700001
2018-07-15T14:52:04.592Z,21.1
2018-07-15T14:57:07.015Z,22.1
2018-07-15T15:02:09.438Z,23.700001
2018-07-15T15:07:11.540Z,24.700001
2018-07-15T15:12:13.857Z,23.6
2018-07-15T15:17:16.167Z,22.299999
2018-07-15T15:22:18.569Z,21.5
2018-07-15T15:27:20.694Z,22.700001
2018-07-15T15:32:22.928Z,20.299999
2018-07-15T15:37:25.486Z,20.6
2018-07-15T15:42:27.712Z,21.9
2018-07-15T15:47:29.959Z,22.5
2018-07-15T15:52:32.168Z,23.6
2018-07-15T15:57:34.612Z,25.1
2018-07-15T16:02:36.853Z,21.9
2018-07-15T16:07:39.134Z,24.5
2018-07-15T16:12:41.502Z,27.700001
2018-07-15T16:17:43.711Z,29.4
2018-07-15T16:22:46.056Z,25.200001
2018-07-15T16:27:48.251Z,27.200001
2018-07-15T16:32:50.722Z,30.5
2018-07-15T16:37:52.897Z,30.9
2018-07-15T16:42:55.095Z,33.400002
2018-07-15T16:47:57.380Z,32
2018-07-15T16:52:59.860Z,31.700001
2018-07-15T16:58:01.959Z,32.799999
2018-07-15T17:03:04.276Z,32.200001
2018-07-15T17:08:06.636Z,31.200001
2018-07-15T17:13:08.848Z,30.4
2018-07-15T17:18:11.215Z,31.5
2018-07-15T17:23:13.404Z,29.700001
2018-07-15T17:28:15.786Z,37
2018-07-15T17:33:18.041Z,32.599998
2018-07-15T17:38:20.576Z,33.099998
2018-07-15T17:43:22.749Z,35.700001
2018-07-15T17:48:24.938Z,34.200001
2018-07-15T17:53:27.207Z,36.799999
2018-07-15T17:58:29.508Z,38.099998
2018-07-15T18:03:31.876Z,36.400002
2018-07-15T18:08:34.130Z,38
2018-07-15T18:13:36.434Z,39.799999
2018-07-15T18:18:38.654Z,39.900002
2018-07-15T18:23:41.059Z,41.5
2018-07-15T18:28:43.250Z,41.900002
2018-07-15T18:33:45.966Z,41
2018-07-15T18:38:47.869Z,42
2018-07-15T18:43:50.273Z,42.400002
2018-07-15T18:48:52.503Z,42.5
2018-07-15T18:53:54.823Z,44
2018-07-15T18:58:57.043Z,45.299999
2018-07-15T19:03:59.472Z,45.799999
2018-07-15T19:09:01.651Z,47.200001
2018-07-15T19:14:03.971Z,48.200001
2018-07-15T19:19:06.266Z,47.200001
2018-07-15T19:24:08.487Z,48.5
2018-07-15T19:29:10.812Z,49.599998
2018-07-15T19:34:13.182Z,51.400002
2018-07-15T19:39:15.384Z,52.5
2018-07-15T19:44:17.769Z,52.400002
2018-07-15T19:49:20.144Z,53.900002
2018-07-15T19:54:22.344Z,53.799999
2018-07-15T19:59:24.693Z,54.400002
2018-07-15T20:04:26.865Z,55.400002
2018-07-15T20:09:29.402Z,56.700001
2018-07-15T20:14:31.555Z,57.5
2018-07-15T20:19:33.869Z,58.599998
2018-07-15T20:24:36.193Z,59.900002
2018-07-15T20:29:38.323Z,60.299999
2018-07-15T20:34:40.589Z,61
2018-07-15T20:39:43.076Z,61.400002
2018-07-15T20:44:45.358Z,62.200001
2018-07-15T20:49:47.547Z,63.900002
2018-07-15T20:54:49.873Z,63.400002
2018-07-15T20:59:52.214Z,63.599998
2018-07-15T21:04:54.391Z,62.299999
2018-07-15T21:09:56.760Z,62.900002
2018-07-15T21:14:59.129Z,63.599998
2018-07-15T21:20:01.295Z,63.799999
2018-07-15T21:25:03.605Z,64.400002
2018-07-15T21:30:05.917Z,65.800003
2018-07-15T21:35:08.155Z,65.699997
2018-07-15T21:40:10.478Z,66.800003
2018-07-15T21:45:12.836Z,66.900002
2018-07-15T21:50:15.057Z,66.699997
2018-07-15T21:55:17.418Z,67.900002
2018-07-15T22:00:19.873Z,68.699997
2018-07-15T22:05:22.079Z,68.900002
2018-07-15T22:10:24.352Z,69.199997
2018-07-15T22:15:26.551Z,69.599998
2018-07-15T22:20:28.993Z,70
2018-07-15T22:30:33.418Z,70.900002
2018-07-15T22:35:35.892Z,71.300003
2018-07-15T22:40:38.121Z,71.699997
2018-07-15T22:45:40.266Z,72.400002
2018-07-15T22:50:42.595Z,72.699997
2018-07-15T22:55:44.978Z,73
2018-07-15T23:00:47.363Z,73.300003
2018-07-15T23:05:49.508Z,73.699997
2018-07-15T23:10:51.790Z,73.599998
2018-07-15T23:15:53.997Z,74.300003
2018-07-15T23:20:56.385Z,74.699997
2018-07-15T23:25:58.656Z,74.699997
2018-07-15T23:31:00.967Z,74.599998
2018-07-15T23:36:03.422Z,75.099998
2018-07-15T23:41:05.568Z,75.099998
2018-07-15T23:46:07.884Z,75.5
2018-07-15T23:56:12.474Z,76.300003
